Aviation Digital Data Service (ADDS)

Output produced by METARs form (1436 UTC 23 January 2019)
found at http://www.aviationweather.gov/metar/data/
 
METAR text: URSS 231400Z 13007MPS 9999 FEW100 13/M01 Q1015 WS ALL RWY R06/090070 R02/////// NOSIG RMK R02/12004G08MPS QFE760
Conditions at: URSS (SOTCHI , RU) observed 1400 UTC 23 January 2019
Temperature: 13.0°C (55°F)
Dewpoint: -1.0°C (30°F) [RH = 38%]
Pressure (altimeter): 29.97 inches Hg (1015.0 mb)
Winds: from the SE (130 degrees) at 16 MPH (14 knots; 7.2 m/s)
Visibility: 6 or more miles (10+ km)
Ceiling: at least 12,000 feet AGL
Clouds: few clouds at 10000 feet AGL
Weather: no significant weather observed at this time

METAR text: URSS 231330Z 14006MPS 9999 FEW100 13/M01 Q1015 WS ALL RWY R06/090070 R02/////// NOSIG RMK R02/13006G10MPS QFE760
Conditions at: URSS (SOTCHI , RU) observed 1330 UTC 23 January 2019
Temperature: 13.0°C (55°F)
Dewpoint: -1.0°C (30°F) [RH = 38%]
Pressure (altimeter): 29.97 inches Hg (1015.0 mb)
Winds: from the SE (140 degrees) at 14 MPH (12 knots; 6.2 m/s)
Visibility: 6 or more miles (10+ km)
Ceiling: at least 12,000 feet AGL
Clouds: few clouds at 10000 feet AGL
Weather: no significant weather observed at this time

METAR text: URSS 231300Z 14007G13MPS 9999 FEW100 13/M02 Q1015 WS ALL RWY R06/090070 R02/////// NOSIG RMK R02/14006G11MPS QFE760
Conditions at: URSS (SOTCHI , RU) observed 1300 UTC 23 January 2019
Temperature: 13.0°C (55°F)
Dewpoint: -2.0°C (28°F) [RH = 35%]
Pressure (altimeter): 29.97 inches Hg (1015.0 mb)
Winds: from the SE (140 degrees) at 16 MPH (14 knots; 7.2 m/s)
gusting to 29 MPH (25 knots; 12.9 m/s)
Visibility: 6 or more miles (10+ km)
Ceiling: at least 12,000 feet AGL
Clouds: few clouds at 10000 feet AGL
Weather: no significant weather observed at this time

METAR text: URSS 231230Z 13005MPS 9999 FEW100 13/M00 Q1015 WS ALL RWY R06/090070 R02/////// NOSIG RMK R02/12004G07MPS QFE760
Conditions at: URSS (SOTCHI , RU) observed 1230 UTC 23 January 2019
Temperature: 13.0°C (55°F)
Dewpoint: 0.0°C (32°F) [RH = 41%]
Pressure (altimeter): 29.97 inches Hg (1015.0 mb)
Winds: from the SE (130 degrees) at 12 MPH (10 knots; 5.1 m/s)
Visibility: 6 or more miles (10+ km)
Ceiling: at least 12,000 feet AGL
Clouds: few clouds at 10000 feet AGL
Weather: no significant weather observed at this time

METAR text: URSS 231200Z 14006MPS 9999 FEW100 13/M00 Q1015 WS ALL RWY R06/090070 R02/////// NOSIG RMK R02/14006G11MPS QFE760
Conditions at: URSS (SOTCHI , RU) observed 1200 UTC 23 January 2019
Temperature: 13.0°C (55°F)
Dewpoint: 0.0°C (32°F) [RH = 41%]
Pressure (altimeter): 29.97 inches Hg (1015.0 mb)
Winds: from the SE (140 degrees) at 14 MPH (12 knots; 6.2 m/s)
Visibility: 6 or more miles (10+ km)
Ceiling: at least 12,000 feet AGL
Clouds: few clouds at 10000 feet AGL
Weather: no significant weather observed at this time

METAR text: URSS 231130Z 13004MPS 9999 SCT080 12/01 Q1016 WS ALL RWY R06/090070 R02/////// NOSIG RMK R02/13003G06MPS QFE761
Conditions at: URSS (SOTCHI , RU) observed 1130 UTC 23 January 2019
Temperature: 12.0°C (54°F)
Dewpoint: 1.0°C (34°F) [RH = 47%]
Pressure (altimeter): 30.00 inches Hg (1016.0 mb)
Winds: from the SE (130 degrees) at 9 MPH (8 knots; 4.1 m/s)
Visibility: 6 or more miles (10+ km)
Ceiling: at least 12,000 feet AGL
Clouds: scattered clouds at 8000 feet AGL
Weather: no significant weather observed at this time

METAR text: URSS 231100Z 13004MPS 9999 BKN080 11/01 Q1016 WS ALL RWY R06/090070 R02/////// NOSIG RMK R02/15003MPS QFE761
Conditions at: URSS (SOTCHI , RU) observed 1100 UTC 23 January 2019
Temperature: 11.0°C (52°F)
Dewpoint: 1.0°C (34°F) [RH = 50%]
Pressure (altimeter): 30.00 inches Hg (1016.0 mb)
Winds: from the SE (130 degrees) at 9 MPH (8 knots; 4.1 m/s)
Visibility: 6 or more miles (10+ km)
Ceiling: 8000 feet AGL
Clouds: broken clouds at 8000 feet AGL
Weather: no significant weather observed at this time

METAR text: URSS 231030Z 07004MPS 9999 BKN076 10/01 Q1016 WS ALL RWY R06/090070 R02/////// NOSIG RMK R02/04003MPS QFE761
Conditions at: URSS (SOTCHI , RU) observed 1030 UTC 23 January 2019
Temperature: 10.0°C (50°F)
Dewpoint: 1.0°C (34°F) [RH = 53%]
Pressure (altimeter): 30.00 inches Hg (1016.0 mb)
Winds: from the ENE (70 degrees) at 9 MPH (8 knots; 4.1 m/s)
Visibility: 6 or more miles (10+ km)
Ceiling: 7600 feet AGL
Clouds: broken clouds at 7600 feet AGL
Weather: no significant weather observed at this time

METAR text: URSS 231000Z 07004MPS 9999 OVC076 10/01 Q1017 WS ALL RWY R06/090070 R02/////// NOSIG RMK R02/03003MPS QFE761
Conditions at: URSS (SOTCHI , RU) observed 1000 UTC 23 January 2019
Temperature: 10.0°C (50°F)
Dewpoint: 1.0°C (34°F) [RH = 53%]
Pressure (altimeter): 30.03 inches Hg (1017.0 mb)
Winds: from the ENE (70 degrees) at 9 MPH (8 knots; 4.1 m/s)
Visibility: 6 or more miles (10+ km)
Ceiling: 7600 feet AGL
Clouds: overcast cloud deck at 7600 feet AGL
Weather: no significant weather observed at this time

METAR text: URSS 230930Z 06001MPS 9999 OVC080 10/02 Q1017 WS ALL RWY R06/090070 R02/////// NOSIG RMK R02/04003MPS QFE761
Conditions at: URSS (SOTCHI , RU) observed 0930 UTC 23 January 2019
Temperature: 10.0°C (50°F)
Dewpoint: 2.0°C (36°F) [RH = 57%]
Pressure (altimeter): 30.03 inches Hg (1017.0 mb)
Winds: from the ENE (60 degrees) at 2 MPH (2 knots; 1.0 m/s)
Visibility: 6 or more miles (10+ km)
Ceiling: 8000 feet AGL
Clouds: overcast cloud deck at 8000 feet AGL
Weather: no significant weather observed at this time

METAR text: URSS 230900Z 11003MPS 9999 OVC080 09/01 Q1017 WS ALL RWY R06/090070 R02/////// NOSIG RMK R02/12003MPS QFE762
Conditions at: URSS (SOTCHI , RU) observed 0900 UTC 23 January 2019
Temperature: 9.0°C (48°F)
Dewpoint: 1.0°C (34°F) [RH = 57%]
Pressure (altimeter): 30.03 inches Hg (1017.0 mb)
Winds: from the ESE (110 degrees) at 7 MPH (6 knots; 3.1 m/s)
Visibility: 6 or more miles (10+ km)
Ceiling: 8000 feet AGL
Clouds: overcast cloud deck at 8000 feet AGL
Weather: no significant weather observed at this time

METAR text: URSS 230830Z 10003MPS 070V140 9999 BKN080 09/00 Q1018 WS ALL RWY R06/090070 R02/////// NOSIG RMK R02/09001MPS QFE762
Conditions at: URSS (SOTCHI , RU) observed 0830 UTC 23 January 2019
Temperature: 9.0°C (48°F)
Dewpoint: 0.0°C (32°F) [RH = 53%]
Pressure (altimeter): 30.06 inches Hg (1018.0 mb)
Winds: from the E (100 degrees) at 7 MPH (6 knots; 3.1 m/s)
Visibility: 6 or more miles (10+ km)
Ceiling: 8000 feet AGL
Clouds: broken clouds at 8000 feet AGL
Weather: no significant weather observed at this time

METAR text: URSS 230800Z 07004MPS 9999 SCT120 08/01 Q1018 WS ALL RWY R06/090070 R02/////// NOSIG RMK R02/04004MPS QFE762
Conditions at: URSS (SOTCHI , RU) observed 0800 UTC 23 January 2019
Temperature: 8.0°C (46°F)
Dewpoint: 1.0°C (34°F) [RH = 61%]
Pressure (altimeter): 30.06 inches Hg (1018.0 mb)
Winds: from the ENE (70 degrees) at 9 MPH (8 knots; 4.1 m/s)
Visibility: 6 or more miles (10+ km)
Ceiling: at least 12,000 feet AGL
Clouds: scattered clouds at 12000 feet AGL
Weather: no significant weather observed at this time

METAR text: URSS 230730Z 07004MPS 9999 NSC 08/02 Q1018 WS ALL RWY R06/090070 R02/////// NOSIG RMK R02/04004MPS QFE762
Conditions at: URSS (SOTCHI , RU) observed 0730 UTC 23 January 2019
Temperature: 8.0°C (46°F)
Dewpoint: 2.0°C (36°F) [RH = 66%]
Pressure (altimeter): 30.06 inches Hg (1018.0 mb)
Winds: from the ENE (70 degrees) at 9 MPH (8 knots; 4.1 m/s)
Visibility: 6 or more miles (10+ km)
Ceiling: at least 12,000 feet AGL
Clouds: sky clear below 12,000 feet AGL
Weather: no significant weather observed at this time

METAR text: URSS 230700Z 08004MPS 9999 NSC 07/01 Q1018 WS ALL RWY R06/090070 R02/////// NOSIG RMK R02/04003MPS QFE762
Conditions at: URSS (SOTCHI , RU) observed 0700 UTC 23 January 2019
Temperature: 7.0°C (45°F)
Dewpoint: 1.0°C (34°F) [RH = 66%]
Pressure (altimeter): 30.06 inches Hg (1018.0 mb)
Winds: from the E (80 degrees) at 9 MPH (8 knots; 4.1 m/s)
Visibility: 6 or more miles (10+ km)
Ceiling: at least 12,000 feet AGL
Clouds: sky clear below 12,000 feet AGL
Weather: no significant weather observed at this time

METAR text: URSS 230630Z 09005MPS 9999 NSC 05/01 Q1018 WS ALL RWY R06/090070 R02/////// NOSIG RMK R02/05004MPS QFE762
Conditions at: URSS (SOTCHI , RU) observed 0630 UTC 23 January 2019
Temperature: 5.0°C (41°F)
Dewpoint: 1.0°C (34°F) [RH = 75%]
Pressure (altimeter): 30.06 inches Hg (1018.0 mb)
Winds: from the E (90 degrees) at 12 MPH (10 knots; 5.1 m/s)
Visibility: 6 or more miles (10+ km)
Ceiling: at least 12,000 feet AGL
Clouds: sky clear below 12,000 feet AGL
Weather: no significant weather observed at this time

METAR text: URSS 230600Z 08006MPS 9999 NSC 04/01 Q1018 WS ALL RWY R06/090070 R02/090070 NOSIG RMK R02/05004MPS QFE762
Conditions at: URSS (SOTCHI , RU) observed 0600 UTC 23 January 2019
Temperature: 4.0°C (39°F)
Dewpoint: 1.0°C (34°F) [RH = 81%]
Pressure (altimeter): 30.06 inches Hg (1018.0 mb)
Winds: from the E (80 degrees) at 14 MPH (12 knots; 6.2 m/s)
Visibility: 6 or more miles (10+ km)
Ceiling: at least 12,000 feet AGL
Clouds: sky clear below 12,000 feet AGL
Weather: no significant weather observed at this time

METAR text: URSS 230530Z 08006MPS 9999 NSC 04/00 Q1018 WS ALL RWY R06/090070 R02/090070 NOSIG RMK R02/06004MPS QFE762
Conditions at: URSS (SOTCHI , RU) observed 0530 UTC 23 January 2019
Temperature: 4.0°C (39°F)
Dewpoint: 0.0°C (32°F) [RH = 75%]
Pressure (altimeter): 30.06 inches Hg (1018.0 mb)
Winds: from the E (80 degrees) at 14 MPH (12 knots; 6.2 m/s)
Visibility: 6 or more miles (10+ km)
Ceiling: at least 12,000 feet AGL
Clouds: sky clear below 12,000 feet AGL
Weather: no significant weather observed at this time

METAR text: URSS 230500Z 09007MPS 9999 NSC 03/00 Q1018 WS ALL RWY R06/090070 R02/090070 NOSIG RMK R02/05003MPS QFE762
Conditions at: URSS (SOTCHI , RU) observed 0500 UTC 23 January 2019
Temperature: 3.0°C (37°F)
Dewpoint: 0.0°C (32°F) [RH = 81%]
Pressure (altimeter): 30.06 inches Hg (1018.0 mb)
Winds: from the E (90 degrees) at 16 MPH (14 knots; 7.2 m/s)
Visibility: 6 or more miles (10+ km)
Ceiling: at least 12,000 feet AGL
Clouds: sky clear below 12,000 feet AGL
Weather: no significant weather observed at this time

METAR text: URSS 230430Z 09006MPS 9999 NSC 03/00 Q1018 R06/090070 R02/090070 NOSIG RMK R02/05005MPS QFE762
Conditions at: URSS (SOTCHI , RU) observed 0430 UTC 23 January 2019
Temperature: 3.0°C (37°F)
Dewpoint: 0.0°C (32°F) [RH = 81%]
Pressure (altimeter): 30.06 inches Hg (1018.0 mb)
Winds: from the E (90 degrees) at 14 MPH (12 knots; 6.2 m/s)
Visibility: 6 or more miles (10+ km)
Ceiling: at least 12,000 feet AGL
Clouds: sky clear below 12,000 feet AGL
Weather: no significant weather observed at this time

METAR text: URSS 230400Z 08007MPS 9999 NSC 03/01 Q1018 R06/190065 R02/190065 NOSIG RMK R02/05005G08MPS QFE762
Conditions at: URSS (SOTCHI , RU) observed 0400 UTC 23 January 2019
Temperature: 3.0°C (37°F)
Dewpoint: 1.0°C (34°F) [RH = 87%]
Pressure (altimeter): 30.06 inches Hg (1018.0 mb)
Winds: from the E (80 degrees) at 16 MPH (14 knots; 7.2 m/s)
Visibility: 6 or more miles (10+ km)
Ceiling: at least 12,000 feet AGL
Clouds: sky clear below 12,000 feet AGL
Weather: no significant weather observed at this time

METAR text: URSS 230330Z 08007MPS 9999 NSC 03/01 Q1018 R06/190065 R02/190065 NOSIG RMK R02/05006MPS QFE762
Conditions at: URSS (SOTCHI , RU) observed 0330 UTC 23 January 2019
Temperature: 3.0°C (37°F)
Dewpoint: 1.0°C (34°F) [RH = 87%]
Pressure (altimeter): 30.06 inches Hg (1018.0 mb)
Winds: from the E (80 degrees) at 16 MPH (14 knots; 7.2 m/s)
Visibility: 6 or more miles (10+ km)
Ceiling: at least 12,000 feet AGL
Clouds: sky clear below 12,000 feet AGL
Weather: no significant weather observed at this time

METAR text: URSS 230300Z 08006MPS 9999 NSC 03/01 Q1018 R06/190065 R02/190065 NOSIG RMK R02/06005MPS QFE763
Conditions at: URSS (SOTCHI , RU) observed 0300 UTC 23 January 2019
Temperature: 3.0°C (37°F)
Dewpoint: 1.0°C (34°F) [RH = 87%]
Pressure (altimeter): 30.06 inches Hg (1018.0 mb)
Winds: from the E (80 degrees) at 14 MPH (12 knots; 6.2 m/s)
Visibility: 6 or more miles (10+ km)
Ceiling: at least 12,000 feet AGL
Clouds: sky clear below 12,000 feet AGL
Weather: no significant weather observed at this time

METAR text: URSS 230230Z 08006MPS 9999 FEW030 03/01 Q1018 R06/190065 R02/190065 NOSIG RMK R02/06004MPS MT OBSC QFE763
Conditions at: URSS (SOTCHI , RU) observed 0230 UTC 23 January 2019
Temperature: 3.0°C (37°F)
Dewpoint: 1.0°C (34°F) [RH = 87%]
Pressure (altimeter): 30.06 inches Hg (1018.0 mb)
Winds: from the E (80 degrees) at 14 MPH (12 knots; 6.2 m/s)
Visibility: 6 or more miles (10+ km)
Ceiling: at least 12,000 feet AGL
Clouds: few clouds at 3000 feet AGL
Weather: no significant weather observed at this time

METAR text: URSS 230200Z 09006MPS 9999 FEW030 04/01 Q1019 R06/190065 R02/190065 NOSIG RMK R02/06004MPS MT OBSC QFE763
Conditions at: URSS (SOTCHI , RU) observed 0200 UTC 23 January 2019
Temperature: 4.0°C (39°F)
Dewpoint: 1.0°C (34°F) [RH = 81%]
Pressure (altimeter): 30.09 inches Hg (1019.0 mb)
Winds: from the E (90 degrees) at 14 MPH (12 knots; 6.2 m/s)
Visibility: 6 or more miles (10+ km)
Ceiling: at least 12,000 feet AGL
Clouds: few clouds at 3000 feet AGL
Weather: no significant weather observed at this time

METAR text: URSS 230130Z 08006MPS 9999 FEW030 03/02 Q1019 R06/190065 R02/190065 NOSIG RMK R02/05005MPS MT OBSC QFE763
Conditions at: URSS (SOTCHI , RU) observed 0130 UTC 23 January 2019
Temperature: 3.0°C (37°F)
Dewpoint: 2.0°C (36°F) [RH = 93%]
Pressure (altimeter): 30.09 inches Hg (1019.0 mb)
Winds: from the E (80 degrees) at 14 MPH (12 knots; 6.2 m/s)
Visibility: 6 or more miles (10+ km)
Ceiling: at least 12,000 feet AGL
Clouds: few clouds at 3000 feet AGL
Weather: no significant weather observed at this time

METAR text: URSS 230100Z 07006MPS 9999 SCT030 04/02 Q1019 R06/190065 R02/190065 NOSIG RMK R02/04004MPS MT OBSC QFE763
Conditions at: URSS (SOTCHI , RU) observed 0100 UTC 23 January 2019
Temperature: 4.0°C (39°F)
Dewpoint: 2.0°C (36°F) [RH = 87%]
Pressure (altimeter): 30.09 inches Hg (1019.0 mb)
Winds: from the ENE (70 degrees) at 14 MPH (12 knots; 6.2 m/s)
Visibility: 6 or more miles (10+ km)
Ceiling: at least 12,000 feet AGL
Clouds: scattered clouds at 3000 feet AGL
Weather: no significant weather observed at this time

METAR text: URSS 230030Z 09005MPS 9999 BKN030 04/02 Q1019 R06/190065 R02/190065 NOSIG RMK R02/05004MPS MT OBSC QFE763
Conditions at: URSS (SOTCHI , RU) observed 0030 UTC 23 January 2019
Temperature: 4.0°C (39°F)
Dewpoint: 2.0°C (36°F) [RH = 87%]
Pressure (altimeter): 30.09 inches Hg (1019.0 mb)
Winds: from the E (90 degrees) at 12 MPH (10 knots; 5.1 m/s)
Visibility: 6 or more miles (10+ km)
Ceiling: 3000 feet AGL
Clouds: broken clouds at 3000 feet AGL
Weather: no significant weather observed at this time

METAR text: URSS 230000Z 08006MPS 9999 SCT030 04/02 Q1020 R06/190065 R02/190065 NOSIG RMK R02/06003MPS MT OBSC QFE764
Conditions at: URSS (SOTCHI , RU) observed 0000 UTC 23 January 2019
Temperature: 4.0°C (39°F)
Dewpoint: 2.0°C (36°F) [RH = 87%]
Pressure (altimeter): 30.12 inches Hg (1020.0 mb)
Winds: from the E (80 degrees) at 14 MPH (12 knots; 6.2 m/s)
Visibility: 6 or more miles (10+ km)
Ceiling: at least 12,000 feet AGL
Clouds: scattered clouds at 3000 feet AGL
Weather: no significant weather observed at this time

METAR text: URSS 222330Z 08005MPS 9999 SCT030 04/02 Q1020 R06/190065 R02/190065 NOSIG RMK R02/05004MPS MT OBSC QFE764
Conditions at: URSS (SOTCHI , RU) observed 2330 UTC 22 January 2019
Temperature: 4.0°C (39°F)
Dewpoint: 2.0°C (36°F) [RH = 87%]
Pressure (altimeter): 30.12 inches Hg (1020.0 mb)
Winds: from the E (80 degrees) at 12 MPH (10 knots; 5.1 m/s)
Visibility: 6 or more miles (10+ km)
Ceiling: at least 12,000 feet AGL
Clouds: scattered clouds at 3000 feet AGL
Weather: no significant weather observed at this time

METAR text: URSS 222300Z 08005MPS 9999 FEW030 04/02 Q1020 R06/190065 R02/190065 NOSIG RMK R02/05003MPS MT OBSC QFE764
Conditions at: URSS (SOTCHI , RU) observed 2300 UTC 22 January 2019
Temperature: 4.0°C (39°F)
Dewpoint: 2.0°C (36°F) [RH = 87%]
Pressure (altimeter): 30.12 inches Hg (1020.0 mb)
Winds: from the E (80 degrees) at 12 MPH (10 knots; 5.1 m/s)
Visibility: 6 or more miles (10+ km)
Ceiling: at least 12,000 feet AGL
Clouds: few clouds at 3000 feet AGL
Weather: no significant weather observed at this time

METAR text: URSS 222230Z 04002MPS 9999 BKN036 05/03 Q1020 R06/190065 R02/190065 NOSIG RMK R02/05004MPS MT OBSC QFE764
Conditions at: URSS (SOTCHI , RU) observed 2230 UTC 22 January 2019
Temperature: 5.0°C (41°F)
Dewpoint: 3.0°C (37°F) [RH = 87%]
Pressure (altimeter): 30.12 inches Hg (1020.0 mb)
Winds: from the NE (40 degrees) at 5 MPH (4 knots; 2.1 m/s)
Visibility: 6 or more miles (10+ km)
Ceiling: 3600 feet AGL
Clouds: broken clouds at 3600 feet AGL
Weather: no significant weather observed at this time

METAR text: URSS 222200Z 35002MPS 9999 OVC036CB 05/04 Q1020 R06/290060 R02/290060 NOSIG RMK R02/05004MPS MT OBSC QFE764
Conditions at: URSS (SOTCHI , RU) observed 2200 UTC 22 January 2019
Temperature: 5.0°C (41°F)
Dewpoint: 4.0°C (39°F) [RH = 93%]
Pressure (altimeter): 30.12 inches Hg (1020.0 mb)
Winds: from the N (350 degrees) at 5 MPH (4 knots; 2.1 m/s)
Visibility: 6 or more miles (10+ km)
Ceiling: 3600 feet AGL
Clouds: overcast cloud deck at 3600 feet AGL
Weather: no significant weather observed at this time

METAR text: URSS 222130Z 06004MPS 9999 OVC036CB 05/03 Q1020 R06/290060 R02/290060 NOSIG RMK R02/05004MPS MT OBSC QFE764
Conditions at: URSS (SOTCHI , RU) observed 2130 UTC 22 January 2019
Temperature: 5.0°C (41°F)
Dewpoint: 3.0°C (37°F) [RH = 87%]
Pressure (altimeter): 30.12 inches Hg (1020.0 mb)
Winds: from the ENE (60 degrees) at 9 MPH (8 knots; 4.1 m/s)
Visibility: 6 or more miles (10+ km)
Ceiling: 3600 feet AGL
Clouds: overcast cloud deck at 3600 feet AGL
Weather: no significant weather observed at this time

METAR text: URSS 222100Z 06003MPS 9999 OVC040CB 05/03 Q1021 R06/290060 R02/290060 NOSIG RMK R02/06003MPS MT OBSC QFE764
Conditions at: URSS (SOTCHI , RU) observed 2100 UTC 22 January 2019
Temperature: 5.0°C (41°F)
Dewpoint: 3.0°C (37°F) [RH = 87%]
Pressure (altimeter): 30.15 inches Hg (1021.0 mb)
Winds: from the ENE (60 degrees) at 7 MPH (6 knots; 3.1 m/s)
Visibility: 6 or more miles (10+ km)
Ceiling: 4000 feet AGL
Clouds: overcast cloud deck at 4000 feet AGL
Weather: no significant weather observed at this time

METAR text: URSS 222030Z 07004MPS 9999 -SHRA OVC040CB 05/03 Q1021 R06/290060 R02/290060 NOSIG RMK R02/05004MPS MT OBSC QFE764
Conditions at: URSS (SOTCHI , RU) observed 2030 UTC 22 January 2019
Temperature: 5.0°C (41°F)
Dewpoint: 3.0°C (37°F) [RH = 87%]
Pressure (altimeter): 30.15 inches Hg (1021.0 mb)
Winds: from the ENE (70 degrees) at 9 MPH (8 knots; 4.1 m/s)
Visibility: 6 or more miles (10+ km)
Ceiling: 4000 feet AGL
Clouds: overcast cloud deck at 4000 feet AGL
Weather: -SHRA  (light rain showers)

METAR text: URSS 222000Z 07003MPS 9999 OVC050 05/03 Q1021 R06/290060 R02/290060 NOSIG RMK R02/06004MPS QFE764
Conditions at: URSS (SOTCHI , RU) observed 2000 UTC 22 January 2019
Temperature: 5.0°C (41°F)
Dewpoint: 3.0°C (37°F) [RH = 87%]
Pressure (altimeter): 30.15 inches Hg (1021.0 mb)
Winds: from the ENE (70 degrees) at 7 MPH (6 knots; 3.1 m/s)
Visibility: 6 or more miles (10+ km)
Ceiling: 5000 feet AGL
Clouds: overcast cloud deck at 5000 feet AGL
Weather: no significant weather observed at this time

METAR text: URSS 221930Z 07003MPS 9999 OVC050 05/03 Q1021 R06/290060 R02/290060 NOSIG RMK R02/05003MPS QFE765
Conditions at: URSS (SOTCHI , RU) observed 1930 UTC 22 January 2019
Temperature: 5.0°C (41°F)
Dewpoint: 3.0°C (37°F) [RH = 87%]
Pressure (altimeter): 30.15 inches Hg (1021.0 mb)
Winds: from the ENE (70 degrees) at 7 MPH (6 knots; 3.1 m/s)
Visibility: 6 or more miles (10+ km)
Ceiling: 5000 feet AGL
Clouds: overcast cloud deck at 5000 feet AGL
Weather: no significant weather observed at this time

METAR text: URSS 221900Z 08004MPS 9999 OVC050 05/03 Q1021 R06/290060 R02/290060 NOSIG RMK R02/05003MPS QFE765
Conditions at: URSS (SOTCHI , RU) observed 1900 UTC 22 January 2019
Temperature: 5.0°C (41°F)
Dewpoint: 3.0°C (37°F) [RH = 87%]
Pressure (altimeter): 30.15 inches Hg (1021.0 mb)
Winds: from the E (80 degrees) at 9 MPH (8 knots; 4.1 m/s)
Visibility: 6 or more miles (10+ km)
Ceiling: 5000 feet AGL
Clouds: overcast cloud deck at 5000 feet AGL
Weather: no significant weather observed at this time

METAR text: URSS 221830Z 08004MPS 9999 OVC050 05/03 Q1021 R06/290060 R02/290060 NOSIG RMK R02/05003MPS QFE765
Conditions at: URSS (SOTCHI , RU) observed 1830 UTC 22 January 2019
Temperature: 5.0°C (41°F)
Dewpoint: 3.0°C (37°F) [RH = 87%]
Pressure (altimeter): 30.15 inches Hg (1021.0 mb)
Winds: from the E (80 degrees) at 9 MPH (8 knots; 4.1 m/s)
Visibility: 6 or more miles (10+ km)
Ceiling: 5000 feet AGL
Clouds: overcast cloud deck at 5000 feet AGL
Weather: no significant weather observed at this time

METAR text: URSS 221800Z 08004MPS 9999 OVC050 05/04 Q1021 R06/290060 R02/290060 NOSIG RMK R02/05002MPS QFE765
Conditions at: URSS (SOTCHI , RU) observed 1800 UTC 22 January 2019
Temperature: 5.0°C (41°F)
Dewpoint: 4.0°C (39°F) [RH = 93%]
Pressure (altimeter): 30.15 inches Hg (1021.0 mb)
Winds: from the E (80 degrees) at 9 MPH (8 knots; 4.1 m/s)
Visibility: 6 or more miles (10+ km)
Ceiling: 5000 feet AGL
Clouds: overcast cloud deck at 5000 feet AGL
Weather: no significant weather observed at this time

METAR text: URSS 221730Z 08003MPS 9999 BKN050CB 04/03 Q1021 R06/290055 R02/250355 NOSIG RMK R02/07002MPS QFE765
Conditions at: URSS (SOTCHI , RU) observed 1730 UTC 22 January 2019
Temperature: 4.0°C (39°F)
Dewpoint: 3.0°C (37°F) [RH = 93%]
Pressure (altimeter): 30.15 inches Hg (1021.0 mb)
Winds: from the E (80 degrees) at 7 MPH (6 knots; 3.1 m/s)
Visibility: 6 or more miles (10+ km)
Ceiling: 5000 feet AGL
Clouds: broken clouds at 5000 feet AGL
Weather: no significant weather observed at this time

METAR text: URSS 221700Z 08003MPS 9999 BKN050CB 05/03 Q1021 R06/290055 R02/250355 NOSIG RMK R02/05002MPS QFE765
Conditions at: URSS (SOTCHI , RU) observed 1700 UTC 22 January 2019
Temperature: 5.0°C (41°F)
Dewpoint: 3.0°C (37°F) [RH = 87%]
Pressure (altimeter): 30.15 inches Hg (1021.0 mb)
Winds: from the E (80 degrees) at 7 MPH (6 knots; 3.1 m/s)
Visibility: 6 or more miles (10+ km)
Ceiling: 5000 feet AGL
Clouds: broken clouds at 5000 feet AGL
Weather: no significant weather observed at this time

METAR text: URSS 221630Z 08003MPS 9999 BKN050CB 05/04 Q1021 R06/290055 R02/250355 NOSIG RMK R02/05002MPS QFE765
Conditions at: URSS (SOTCHI , RU) observed 1630 UTC 22 January 2019
Temperature: 5.0°C (41°F)
Dewpoint: 4.0°C (39°F) [RH = 93%]
Pressure (altimeter): 30.15 inches Hg (1021.0 mb)
Winds: from the E (80 degrees) at 7 MPH (6 knots; 3.1 m/s)
Visibility: 6 or more miles (10+ km)
Ceiling: 5000 feet AGL
Clouds: broken clouds at 5000 feet AGL
Weather: no significant weather observed at this time

METAR text: URSS 221600Z 09005MPS 9999 OVC040CB 05/04 Q1021 R06/290055 R02/250355 NOSIG RMK R02/04003MPS MT OBSC QFE764
Conditions at: URSS (SOTCHI , RU) observed 1600 UTC 22 January 2019
Temperature: 5.0°C (41°F)
Dewpoint: 4.0°C (39°F) [RH = 93%]
Pressure (altimeter): 30.15 inches Hg (1021.0 mb)
Winds: from the E (90 degrees) at 12 MPH (10 knots; 5.1 m/s)
Visibility: 6 or more miles (10+ km)
Ceiling: 4000 feet AGL
Clouds: overcast cloud deck at 4000 feet AGL
Weather: no significant weather observed at this time

METAR text: URSS 221530Z 07004MPS 9999 -SHRA OVC030CB 05/04 Q1020 R06/190060 R02/250355 NOSIG RMK R02/05003MPS MT OBSC QFE764
Conditions at: URSS (SOTCHI , RU) observed 1530 UTC 22 January 2019
Temperature: 5.0°C (41°F)
Dewpoint: 4.0°C (39°F) [RH = 93%]
Pressure (altimeter): 30.12 inches Hg (1020.0 mb)
Winds: from the ENE (70 degrees) at 9 MPH (8 knots; 4.1 m/s)
Visibility: 6 or more miles (10+ km)
Ceiling: 3000 feet AGL
Clouds: overcast cloud deck at 3000 feet AGL
Weather: -SHRA  (light rain showers)

METAR text: URSS 221500Z 07004MPS 8000 -SHRA OVC030CB 05/04 Q1020 R06/190060 R02/250355 NOSIG RMK R02/05003MPS MT OBSC QFE764
Conditions at: URSS (SOTCHI , RU) observed 1500 UTC 22 January 2019
Temperature: 5.0°C (41°F)
Dewpoint: 4.0°C (39°F) [RH = 93%]
Pressure (altimeter): 30.12 inches Hg (1020.0 mb)
Winds: from the ENE (70 degrees) at 9 MPH (8 knots; 4.1 m/s)
Visibility: 5 miles ( 8 km)
Ceiling: 3000 feet AGL
Clouds: overcast cloud deck at 3000 feet AGL
Weather: -SHRA  (light rain showers)

METAR text: URSS 221430Z 27001MPS 9999 OVC030CB 06/03 Q1020 R06/190060 R02/250355 NOSIG RMK R02/06002MPS MT OBSC QFE764
Conditions at: URSS (SOTCHI , RU) observed 1430 UTC 22 January 2019
Temperature: 6.0°C (43°F)
Dewpoint: 3.0°C (37°F) [RH = 81%]
Pressure (altimeter): 30.12 inches Hg (1020.0 mb)
Winds: from the W (270 degrees) at 2 MPH (2 knots; 1.0 m/s)
Visibility: 6 or more miles (10+ km)
Ceiling: 3000 feet AGL
Clouds: overcast cloud deck at 3000 feet AGL
Weather: no significant weather observed at this time

METAR text: URSS 221400Z 01002MPS 9999 -SHRA SCT018 OVC030CB 06/03 Q1020 R06/190060 R02/250355 NOSIG RMK R02/04002MPS MT OBSC QFE764
Conditions at: URSS (SOTCHI , RU) observed 1400 UTC 22 January 2019
Temperature: 6.0°C (43°F)
Dewpoint: 3.0°C (37°F) [RH = 81%]
Pressure (altimeter): 30.12 inches Hg (1020.0 mb)
Winds: from the N (10 degrees) at 5 MPH (4 knots; 2.1 m/s)
Visibility: 6 or more miles (10+ km)
Ceiling: 3000 feet AGL
Clouds: scattered clouds at 1800 feet AGL
overcast cloud deck at 3000 feet AGL
Weather: -SHRA  (light rain showers)

METAR text: URSS 221330Z 01002MPS 9000 -SHRA SCT018 OVC030CB 06/03 Q1020 R06/190060 R02/250355 NOSIG RMK R02/03002MPS MT OBSC QFE764
Conditions at: URSS (SOTCHI , RU) observed 1330 UTC 22 January 2019
Temperature: 6.0°C (43°F)
Dewpoint: 3.0°C (37°F) [RH = 81%]
Pressure (altimeter): 30.12 inches Hg (1020.0 mb)
Winds: from the N (10 degrees) at 5 MPH (4 knots; 2.1 m/s)
Visibility: 6 miles ( 9 km)
Ceiling: 3000 feet AGL
Clouds: scattered clouds at 1800 feet AGL
overcast cloud deck at 3000 feet AGL
Weather: -SHRA  (light rain showers)

METAR text: URSS 221300Z 35004MPS 9999 SCT014 OVC030CB 06/04 Q1020 R06/290055 R02/250355 NOSIG RMK R02/36003MPS MT OBSC QFE764
Conditions at: URSS (SOTCHI , RU) observed 1300 UTC 22 January 2019
Temperature: 6.0°C (43°F)
Dewpoint: 4.0°C (39°F) [RH = 87%]
Pressure (altimeter): 30.12 inches Hg (1020.0 mb)
Winds: from the N (350 degrees) at 9 MPH (8 knots; 4.1 m/s)
Visibility: 6 or more miles (10+ km)
Ceiling: 3000 feet AGL
Clouds: scattered clouds at 1400 feet AGL
overcast cloud deck at 3000 feet AGL
Weather: no significant weather observed at this time

METAR text: URSS 221230Z 35003MPS 9999 SCT014 OVC030CB 07/03 Q1020 R06/290055 R02/250355 NOSIG RMK R02/31003MPS MT OBSC QFE764
Conditions at: URSS (SOTCHI , RU) observed 1230 UTC 22 January 2019
Temperature: 7.0°C (45°F)
Dewpoint: 3.0°C (37°F) [RH = 76%]
Pressure (altimeter): 30.12 inches Hg (1020.0 mb)
Winds: from the N (350 degrees) at 7 MPH (6 knots; 3.1 m/s)
Visibility: 6 or more miles (10+ km)
Ceiling: 3000 feet AGL
Clouds: scattered clouds at 1400 feet AGL
overcast cloud deck at 3000 feet AGL
Weather: no significant weather observed at this time

METAR text: URSS 221200Z 06002MPS 9999 SCT013 OVC030CB 08/05 Q1019 R06/290055 R02/250355 NOSIG RMK R02/03003MPS MT OBSC QFE763
Conditions at: URSS (SOTCHI , RU) observed 1200 UTC 22 January 2019
Temperature: 8.0°C (46°F)
Dewpoint: 5.0°C (41°F) [RH = 81%]
Pressure (altimeter): 30.09 inches Hg (1019.0 mb)
Winds: from the ENE (60 degrees) at 5 MPH (4 knots; 2.1 m/s)
Visibility: 6 or more miles (10+ km)
Ceiling: 3000 feet AGL
Clouds: scattered clouds at 1300 feet AGL
overcast cloud deck at 3000 feet AGL
Weather: no significant weather observed at this time

METAR text: URSS 221130Z 08002MPS 040V110 9999 SCT011 OVC030CB 08/05 Q1019 R06/290055 R02/250355 NOSIG RMK R02/04003MPS MT OBSC QFE763
Conditions at: URSS (SOTCHI , RU) observed 1130 UTC 22 January 2019
Temperature: 8.0°C (46°F)
Dewpoint: 5.0°C (41°F) [RH = 81%]
Pressure (altimeter): 30.09 inches Hg (1019.0 mb)
Winds: from the E (80 degrees) at 5 MPH (4 knots; 2.1 m/s)
Visibility: 6 or more miles (10+ km)
Ceiling: 3000 feet AGL
Clouds: scattered clouds at 1100 feet AGL
overcast cloud deck at 3000 feet AGL
Weather: no significant weather observed at this time

METAR text: URSS 221100Z 08003MPS 9999 -SHRA SCT015 BKN040CB 08/06 Q1020 R06/290055 R02/250355 NOSIG RMK R02/05003MPS MT OBSC QFE764
Conditions at: URSS (SOTCHI , RU) observed 1100 UTC 22 January 2019
Temperature: 8.0°C (46°F)
Dewpoint: 6.0°C (43°F) [RH = 87%]
Pressure (altimeter): 30.12 inches Hg (1020.0 mb)
Winds: from the E (80 degrees) at 7 MPH (6 knots; 3.1 m/s)
Visibility: 6 or more miles (10+ km)
Ceiling: 4000 feet AGL
Clouds: scattered clouds at 1500 feet AGL
broken clouds at 4000 feet AGL
Weather: -SHRA  (light rain showers)

METAR text: URSS 221030Z 05001MPS 9000 -SHRA BKN016 OVC031CB 07/05 Q1020 R06/290060 R02/250355 NOSIG RMK R02/05002MPS MT OBSC QFE764
Conditions at: URSS (SOTCHI , RU) observed 1030 UTC 22 January 2019
Temperature: 7.0°C (45°F)
Dewpoint: 5.0°C (41°F) [RH = 87%]
Pressure (altimeter): 30.12 inches Hg (1020.0 mb)
Winds: from the NE (50 degrees) at 2 MPH (2 knots; 1.0 m/s)
Visibility: 6 miles ( 9 km)
Ceiling: 1600 feet AGL
Clouds: broken clouds at 1600 feet AGL
overcast cloud deck at 3100 feet AGL
Weather: -SHRA  (light rain showers)

METAR text: URSS 221000Z 05001MPS 9999 -SHRA BKN018 OVC030CB 07/05 Q1020 R06/290060 R02/250355 NOSIG RMK R02/12002MPS MT OBSC QFE764
Conditions at: URSS (SOTCHI , RU) observed 1000 UTC 22 January 2019
Temperature: 7.0°C (45°F)
Dewpoint: 5.0°C (41°F) [RH = 87%]
Pressure (altimeter): 30.12 inches Hg (1020.0 mb)
Winds: from the NE (50 degrees) at 2 MPH (2 knots; 1.0 m/s)
Visibility: 6 or more miles (10+ km)
Ceiling: 1800 feet AGL
Clouds: broken clouds at 1800 feet AGL
overcast cloud deck at 3000 feet AGL
Weather: -SHRA  (light rain showers)

METAR text: URSS 220930Z 12002MPS 090V170 8000 -SHRA BKN018 OVC030CB 06/05 Q1020 R06/290060 R02/250355 NOSIG RMK R02/07002MPS MT OBSC QFE764
Conditions at: URSS (SOTCHI , RU) observed 0930 UTC 22 January 2019
Temperature: 6.0°C (43°F)
Dewpoint: 5.0°C (41°F) [RH = 93%]
Pressure (altimeter): 30.12 inches Hg (1020.0 mb)
Winds: from the ESE (120 degrees) at 5 MPH (4 knots; 2.1 m/s)
Visibility: 5 miles ( 8 km)
Ceiling: 1800 feet AGL
Clouds: broken clouds at 1800 feet AGL
overcast cloud deck at 3000 feet AGL
Weather: -SHRA  (light rain showers)

METAR text: URSS 220900Z 08003MPS 9000 -SHRA SCT012 OVC028CB 06/04 Q1020 R06/290060 R02/250355 NOSIG RMK R02/04003MPS MT OBSC QFE764
Conditions at: URSS (SOTCHI , RU) observed 0900 UTC 22 January 2019
Temperature: 6.0°C (43°F)
Dewpoint: 4.0°C (39°F) [RH = 87%]
Pressure (altimeter): 30.12 inches Hg (1020.0 mb)
Winds: from the E (80 degrees) at 7 MPH (6 knots; 3.1 m/s)
Visibility: 6 miles ( 9 km)
Ceiling: 2800 feet AGL
Clouds: scattered clouds at 1200 feet AGL
overcast cloud deck at 2800 feet AGL
Weather: -SHRA  (light rain showers)

METAR text: URSS 220830Z 10003MPS 060V130 9000 -SHRA SCT011 OVC031CB 06/04 Q1019 R06/290060 R02/250355 NOSIG RMK R02/05002MPS MT OBSC QFE764
Conditions at: URSS (SOTCHI , RU) observed 0830 UTC 22 January 2019
Temperature: 6.0°C (43°F)
Dewpoint: 4.0°C (39°F) [RH = 87%]
Pressure (altimeter): 30.09 inches Hg (1019.0 mb)
Winds: from the E (100 degrees) at 7 MPH (6 knots; 3.1 m/s)
Visibility: 6 miles ( 9 km)
Ceiling: 3100 feet AGL
Clouds: scattered clouds at 1100 feet AGL
overcast cloud deck at 3100 feet AGL
Weather: -SHRA  (light rain showers)

METAR text: URSS 220800Z 11003MPS 080V150 9999 -SHRA SCT013 OVC034CB 06/04 Q1019 R06/290060 R02/250355 NOSIG RMK R02/07003MPS MT OBSC QFE763
Conditions at: URSS (SOTCHI , RU) observed 0800 UTC 22 January 2019
Temperature: 6.0°C (43°F)
Dewpoint: 4.0°C (39°F) [RH = 87%]
Pressure (altimeter): 30.09 inches Hg (1019.0 mb)
Winds: from the ESE (110 degrees) at 7 MPH (6 knots; 3.1 m/s)
Visibility: 6 or more miles (10+ km)
Ceiling: 3400 feet AGL
Clouds: scattered clouds at 1300 feet AGL
overcast cloud deck at 3400 feet AGL
Weather: -SHRA  (light rain showers)

METAR text: URSS 220730Z 09002MPS 060V130 7000 -SHRA FEW015 OVC032CB 06/04 Q1019 R06/250355 R02/250355 NOSIG RMK R02/06002MPS MT OBSC QFE763
Conditions at: URSS (SOTCHI , RU) observed 0730 UTC 22 January 2019
Temperature: 6.0°C (43°F)
Dewpoint: 4.0°C (39°F) [RH = 87%]
Pressure (altimeter): 30.09 inches Hg (1019.0 mb)
Winds: from the E (90 degrees) at 5 MPH (4 knots; 2.1 m/s)
Visibility: 4 miles ( 7 km)
Ceiling: 3200 feet AGL
Clouds: few clouds at 1500 feet AGL
overcast cloud deck at 3200 feet AGL
Weather: -SHRA  (light rain showers)

METAR text: URSS 220700Z 07003MPS 030V120 9999 -SHRA OVC034CB 06/04 Q1019 R06/250355 R02/250355 NOSIG RMK R02/04003MPS MT OBSC QFE763
Conditions at: URSS (SOTCHI , RU) observed 0700 UTC 22 January 2019
Temperature: 6.0°C (43°F)
Dewpoint: 4.0°C (39°F) [RH = 87%]
Pressure (altimeter): 30.09 inches Hg (1019.0 mb)
Winds: from the ENE (70 degrees) at 7 MPH (6 knots; 3.1 m/s)
Visibility: 6 or more miles (10+ km)
Ceiling: 3400 feet AGL
Clouds: overcast cloud deck at 3400 feet AGL
Weather: -SHRA  (light rain showers)

METAR text: URSS 220630Z 07003MPS 9000 -SHRA OVC030CB 06/04 Q1019 R06/250355 R02/250355 NOSIG RMK R02/04003MPS MT OBSC QFE763
Conditions at: URSS (SOTCHI , RU) observed 0630 UTC 22 January 2019
Temperature: 6.0°C (43°F)
Dewpoint: 4.0°C (39°F) [RH = 87%]
Pressure (altimeter): 30.09 inches Hg (1019.0 mb)
Winds: from the ENE (70 degrees) at 7 MPH (6 knots; 3.1 m/s)
Visibility: 6 miles ( 9 km)
Ceiling: 3000 feet AGL
Clouds: overcast cloud deck at 3000 feet AGL
Weather: -SHRA  (light rain showers)

METAR text: URSS 220600Z 06002MPS 030V110 9999 -SHRA OVC030CB 06/04 Q1018 R06/250355 R02/250355 NOSIG RMK R02/06002MPS MT OBSC QFE763
Conditions at: URSS (SOTCHI , RU) observed 0600 UTC 22 January 2019
Temperature: 6.0°C (43°F)
Dewpoint: 4.0°C (39°F) [RH = 87%]
Pressure (altimeter): 30.06 inches Hg (1018.0 mb)
Winds: from the ENE (60 degrees) at 5 MPH (4 knots; 2.1 m/s)
Visibility: 6 or more miles (10+ km)
Ceiling: 3000 feet AGL
Clouds: overcast cloud deck at 3000 feet AGL
Weather: -SHRA  (light rain showers)

METAR text: URSS 220530Z 07004MPS 9999 -SHRA OVC030CB 06/04 Q1018 R06/250355 R02/250355 NOSIG RMK R02/04003MPS MT OBSC QFE763
Conditions at: URSS (SOTCHI , RU) observed 0530 UTC 22 January 2019
Temperature: 6.0°C (43°F)
Dewpoint: 4.0°C (39°F) [RH = 87%]
Pressure (altimeter): 30.06 inches Hg (1018.0 mb)
Winds: from the ENE (70 degrees) at 9 MPH (8 knots; 4.1 m/s)
Visibility: 6 or more miles (10+ km)
Ceiling: 3000 feet AGL
Clouds: overcast cloud deck at 3000 feet AGL
Weather: -SHRA  (light rain showers)

METAR text: URSS 220500Z 07004MPS 9999 -SHRA OVC030CB 06/04 Q1018 R06/250355 R02/250355 NOSIG RMK R02/04004MPS MT OBSC QFE763
Conditions at: URSS (SOTCHI , RU) observed 0500 UTC 22 January 2019
Temperature: 6.0°C (43°F)
Dewpoint: 4.0°C (39°F) [RH = 87%]
Pressure (altimeter): 30.06 inches Hg (1018.0 mb)
Winds: from the ENE (70 degrees) at 9 MPH (8 knots; 4.1 m/s)
Visibility: 6 or more miles (10+ km)
Ceiling: 3000 feet AGL
Clouds: overcast cloud deck at 3000 feet AGL
Weather: -SHRA  (light rain showers)

METAR text: URSS 220430Z 06003MPS 9999 -SHRA OVC032CB 05/04 Q1018 R06/250355 R02/250355 NOSIG RMK R02/05004MPS MT OBSC QFE763
Conditions at: URSS (SOTCHI , RU) observed 0430 UTC 22 January 2019
Temperature: 5.0°C (41°F)
Dewpoint: 4.0°C (39°F) [RH = 93%]
Pressure (altimeter): 30.06 inches Hg (1018.0 mb)
Winds: from the ENE (60 degrees) at 7 MPH (6 knots; 3.1 m/s)
Visibility: 6 or more miles (10+ km)
Ceiling: 3200 feet AGL
Clouds: overcast cloud deck at 3200 feet AGL
Weather: -SHRA  (light rain showers)

METAR text: URSS 220400Z 11001MPS 9999 -SHRA OVC033CB 06/04 Q1018 R06/250355 R02/250355 NOSIG RMK R02/05005MPS MT OBSC QFE762
Conditions at: URSS (SOTCHI , RU) observed 0400 UTC 22 January 2019
Temperature: 6.0°C (43°F)
Dewpoint: 4.0°C (39°F) [RH = 87%]
Pressure (altimeter): 30.06 inches Hg (1018.0 mb)
Winds: from the ESE (110 degrees) at 2 MPH (2 knots; 1.0 m/s)
Visibility: 6 or more miles (10+ km)
Ceiling: 3300 feet AGL
Clouds: overcast cloud deck at 3300 feet AGL
Weather: -SHRA  (light rain showers)

METAR text: URSS 220330Z 02002MPS 290V070 9999 -SHRA OVC033CB 06/04 Q1018 R06/290055 R02/290055 NOSIG RMK R02/05004MPS MT OBSC QFE762
Conditions at: URSS (SOTCHI , RU) observed 0330 UTC 22 January 2019
Temperature: 6.0°C (43°F)
Dewpoint: 4.0°C (39°F) [RH = 87%]
Pressure (altimeter): 30.06 inches Hg (1018.0 mb)
Winds: from the NNE (20 degrees) at 5 MPH (4 knots; 2.1 m/s)
Visibility: 6 or more miles (10+ km)
Ceiling: 3300 feet AGL
Clouds: overcast cloud deck at 3300 feet AGL
Weather: -SHRA  (light rain showers)

METAR text: URSS 220300Z 06004MPS 9999 -SHRA OVC033CB 06/04 Q1018 R06/290055 R02/290055 NOSIG RMK R02/05003G06MPS MT OBSC QFE762
Conditions at: URSS (SOTCHI , RU) observed 0300 UTC 22 January 2019
Temperature: 6.0°C (43°F)
Dewpoint: 4.0°C (39°F) [RH = 87%]
Pressure (altimeter): 30.06 inches Hg (1018.0 mb)
Winds: from the ENE (60 degrees) at 9 MPH (8 knots; 4.1 m/s)
Visibility: 6 or more miles (10+ km)
Ceiling: 3300 feet AGL
Clouds: overcast cloud deck at 3300 feet AGL
Weather: -SHRA  (light rain showers)

Forecast for: URSS (SOTCHI , RU)
Text: TAF URSS 231355Z 2315/2415 13006G11MPS 9999 SCT100
Forecast period: 1500 to 1600 UTC 23 January 2019
Forecast type: FROM: standard forecast or significant change
Winds: from the SE (130 degrees) at 14 MPH (12 knots; 6.2 m/s)
gusting to 24 MPH (21 knots; 10.8 m/s)
Visibility: 6 or more miles 10+ km)
Ceiling: at least 12,000 feet AGL
Clouds: scattered clouds at 10000 feet AGL
Weather: no significant weather forecast for this period
Text: BECMG 2316/2318 06007MPS
Forecast period: 1600 UTC 23 January 2019 to 0900 UTC 24 January 2019
Forecast type: BECOMING: Conditions expected to become as follows by 1800 UTC 23 January 2019
Winds: from the ENE (60 degrees) at 16 MPH (14 knots; 7.2 m/s)
Visibility: 6 or more miles 10+ km)
Ceiling: at least 12,000 feet AGL
Clouds: scattered clouds at 10000 feet AGL
Weather: no significant weather forecast for this period
Text: TEMPO 2318/2408 03009G14MPS
Forecast period: 1800 UTC 23 January 2019 to 0800 UTC 24 January 2019
Forecast type: TEMPORARY: The following changes expected for less than half the time period
Winds: from the NNE (30 degrees) at 20 MPH (17 knots; 8.7 m/s)
gusting to 31 MPH (27 knots; 13.9 m/s)
Visibility: missing
Ceiling: unknown
Clouds: missing
Weather: no significant weather forecast for this period
Text: BECMG 2409/2410 14005G10MPS OVC100
Forecast period: 0900 to 1500 UTC 24 January 2019
Forecast type: BECOMING: Conditions expected to become as follows by 1000 UTC 24 January 2019
Winds: from the SE (140 degrees) at 12 MPH (10 knots; 5.1 m/s)
gusting to 22 MPH (19 knots; 9.8 m/s)
Visibility: 6 or more miles 10+ km)
Ceiling: 10000 feet AGL
Clouds: overcast cloud deck at 10000 feet AGL
Weather: no significant weather forecast for this period